Time;durP1;ratioP1;P1;durP2;ratioP2;P2;SDS_P1;SDS_P2;PMS_P1;PMS_P2;Temp;Humidity;BMP_temperature;BMP_pressure;BME280_temperature;BME280_humidity;BME280_pressure;Samples;Min_cycle;Max_cycle;Signal;HPM_P1;HPM_P2
2021/05/05 00:02:02;;;;;;;3.88;1.50;;;19.50;47.60;;;;;;6124311;29;20060;-77
2021/05/05 00:05:03;;;;;;;5.32;1.77;;;19.60;47.30;;;;;;6107720;29;20490;-77
2021/05/05 00:08:04;;;;;;;2.45;1.58;;;19.60;46.40;;;;;;6107791;29;20072;-77
2021/05/05 00:11:06;;;;;;;3.53;1.55;;;19.60;46.10;;;;;;6079603;29;20364;-78
2021/05/05 00:14:09;;;;;;;2.53;1.67;;;19.60;45.90;;;;;;6100013;29;20058;-78
2021/05/05 00:17:12;;;;;;;2.92;1.83;;;19.70;45.80;;;;;;6096009;29;20047;-78
2021/05/05 00:20:15;;;;;;;5.03;2.00;;;19.70;45.30;;;;;;6095850;29;20060;-77
2021/05/05 00:23:16;;;;;;;9.50;1.80;;;19.70;45.10;;;;;;6102392;29;20028;-77
2021/05/05 00:26:28;;;;;;;2.13;1.58;;;19.80;44.20;;;;;;6092421;29;20471;-77
2021/05/05 00:29:29;;;;;;;1.27;0.90;;;19.80;43.40;;;;;;6108212;29;20131;-79
2021/05/05 00:32:30;;;;;;;3.10;1.00;;;19.80;41.30;;;;;;6107619;29;20043;-79
2021/05/05 00:35:31;;;;;;;3.17;1.02;;;19.90;40.00;;;;;;6107213;29;20158;-79
2021/05/05 00:38:35;;;;;;;7.20;1.23;;;19.90;40.10;;;;;;6107299;29;20043;-78
2021/05/05 00:41:36;;;;;;;1.85;1.05;;;19.90;40.00;;;;;;6101473;29;20043;-77
2021/05/05 00:44:37;;;;;;;4.40;1.20;;;20.00;39.70;;;;;;6107031;29;20095;-77
2021/05/05 00:47:39;;;;;;;1.70;1.00;;;20.00;39.70;;;;;;6107016;29;20028;-78
2021/05/05 00:50:40;;;;;;;1.95;1.27;;;20.00;39.80;;;;;;6096517;29;20090;-77
2021/05/05 00:53:42;;;;;;;1.23;0.90;;;20.00;40.00;;;;;;6107126;29;20028;-78
2021/05/05 00:56:43;;;;;;;3.40;1.35;;;20.00;40.20;;;;;;6098809;29;20949;-77
2021/05/05 00:59:47;;;;;;;1.30;1.00;;;19.90;40.60;;;;;;6084252;29;20032;-77
2021/05/05 01:02:49;;;;;;;3.47;1.05;;;19.90;40.90;;;;;;6101515;29;20060;-77
2021/05/05 01:05:50;;;;;;;3.47;1.02;;;19.80;41.00;;;;;;6106428;29;20040;-77
2021/05/05 01:08:52;;;;;;;2.65;1.10;;;19.70;41.40;;;;;;6105262;29;20051;-77
2021/05/05 01:11:54;;;;;;;3.78;1.13;;;19.60;41.90;;;;;;6102422;29;20039;-77
2021/05/05 01:14:56;;;;;;;3.45;1.05;;;19.40;42.50;;;;;;6086923;29;20040;-77
2021/05/05 01:17:57;;;;;;;1.98;1.00;;;19.30;43.70;;;;;;6081343;29;20033;-77
2021/05/05 01:21:00;;;;;;;1.15;0.95;;;19.20;44.40;;;;;;6086292;29;20091;-77
2021/05/05 01:24:04;;;;;;;0.95;0.70;;;18.90;45.10;;;;;;6084242;29;20190;-78
2021/05/05 01:27:07;;;;;;;1.40;1.20;;;18.60;46.20;;;;;;6077305;29;20455;-77
2021/05/05 01:30:11;;;;;;;6.57;1.50;;;18.40;46.90;;;;;;6086542;29;20028;-78
2021/05/05 01:33:13;;;;;;;2.28;1.27;;;18.30;47.30;;;;;;6083509;29;20338;-78
2021/05/05 01:36:18;;;;;;;1.60;1.10;;;18.20;48.20;;;;;;6098870;29;20047;-79
2021/05/05 01:39:19;;;;;;;2.00;1.13;;;18.20;49.00;;;;;;6083566;29;20036;-78
2021/05/05 01:42:21;;;;;;;1.25;0.95;;;18.10;49.50;;;;;;6102674;29;20384;-78
2021/05/05 01:45:22;;;;;;;1.75;1.10;;;18.00;50.00;;;;;;6094586;29;20060;-78
2021/05/05 01:48:23;;;;;;;5.72;1.20;;;17.80;50.60;;;;;;6067637;29;20397;-78
2021/05/05 01:51:25;;;;;;;2.13;1.42;;;17.70;51.50;;;;;;6083001;29;20028;-78
2021/05/05 01:54:26;;;;;;;4.03;1.30;;;17.60;52.20;;;;;;6101069;29;20043;-78
2021/05/05 01:57:33;;;;;;;1.75;1.20;;;17.50;52.60;;;;;;6083942;29;20036;-78
2021/05/05 02:00:39;;;;;;;4.85;1.42;;;17.50;52.90;;;;;;6086983;29;20047;-78
2021/05/05 02:03:42;;;;;;;6.55;1.33;;;17.50;53.60;;;;;;6088492;29;20339;-77
2021/05/05 02:06:59;;;;;;;3.47;1.55;;;17.30;55.00;;;;;;6102819;29;20115;-77
2021/05/05 02:10:16;;;;;;;2.03;1.40;;;17.20;54.70;;;;;;6092778;29;20123;-77
2021/05/05 02:13:19;;;;;;;3.05;1.20;;;17.10;55.30;;;;;;6098372;29;20084;-77
2021/05/05 02:16:20;;;;;;;1.67;1.13;;;17.10;56.10;;;;;;6088839;29;20048;-77
2021/05/05 02:19:28;;;;;;;1.90;1.10;;;17.00;56.10;;;;;;6083300;29;20088;-78
2021/05/05 02:22:30;;;;;;;3.95;1.20;;;16.90;56.50;;;;;;6083064;29;20411;-78
2021/05/05 02:25:31;;;;;;;3.67;1.23;;;16.80;57.00;;;;;;6094647;29;20036;-77
2021/05/05 02:28:38;;;;;;;1.88;1.27;;;16.70;57.80;;;;;;6105345;29;20028;-78
2021/05/05 02:31:50;;;;;;;3.53;1.48;;;16.70;57.90;;;;;;6106862;29;20032;-78
2021/05/05 02:34:57;;;;;;;5.53;1.20;;;16.70;58.10;;;;;;6116721;29;20040;-78
2021/05/05 02:37:58;;;;;;;1.85;1.40;;;16.70;58.10;;;;;;6101540;29;20091;-77
2021/05/05 02:41:00;;;;;;;4.82;1.50;;;16.60;58.20;;;;;;6112811;29;20052;-77
2021/05/05 02:44:02;;;;;;;7.55;1.38;;;16.70;58.50;;;;;;6112846;29;20066;-78
2021/05/05 02:47:04;;;;;;;2.10;1.35;;;16.60;58.50;;;;;;6112958;29;20043;-77
2021/05/05 02:50:06;;;;;;;6.35;1.83;;;16.60;58.80;;;;;;6111839;29;20444;-77
2021/05/05 02:53:07;;;;;;;2.53;1.80;;;16.70;58.90;;;;;;6093656;29;20483;-78
2021/05/05 02:56:08;;;;;;;1.25;1.15;;;16.70;58.90;;;;;;6081214;29;20032;-77
2021/05/05 02:59:10;;;;;;;6.78;1.35;;;16.70;59.00;;;;;;6096797;29;20345;-78
2021/05/05 03:02:12;;;;;;;6.43;1.95;;;16.70;59.00;;;;;;6109594;29;20048;-77
2021/05/05 03:05:13;;;;;;;6.90;1.95;;;16.70;59.00;;;;;;6138223;29;20143;-78
2021/05/05 03:08:17;;;;;;;2.80;1.30;;;16.70;59.30;;;;;;6131038;29;20180;-82
2021/05/05 03:11:18;;;;;;;6.05;1.20;;;16.70;59.30;;;;;;6137501;29;20035;-77
2021/05/05 03:14:19;;;;;;;1.73;1.42;;;16.70;59.40;;;;;;6137552;29;20027;-77
2021/05/05 03:17:20;;;;;;;5.13;1.98;;;16.70;59.70;;;;;;6136495;29;20031;-77
2021/05/05 03:20:21;;;;;;;5.18;2.63;;;16.70;60.00;;;;;;6136328;29;20119;-79
2021/05/05 03:23:22;;;;;;;6.25;2.70;;;16.70;60.10;;;;;;6137943;29;20414;-77
2021/05/05 03:26:24;;;;;;;5.75;2.50;;;16.70;60.20;;;;;;6138328;29;20039;-77
2021/05/05 03:29:25;;;;;;;4.20;2.05;;;16.70;60.20;;;;;;6136974;29;20035;-77
2021/05/05 03:32:26;;;;;;;3.33;1.60;;;16.70;60.40;;;;;;6135368;29;20103;-77
2021/05/05 03:35:28;;;;;;;3.45;1.63;;;16.70;60.70;;;;;;6120042;29;20434;-78
2021/05/05 03:38:29;;;;;;;4.10;1.70;;;16.70;60.70;;;;;;6137929;29;20019;-78
2021/05/05 03:41:31;;;;;;;2.53;1.48;;;16.70;60.70;;;;;;6105538;29;20032;-77
2021/05/05 03:44:35;;;;;;;3.33;1.77;;;16.70;60.60;;;;;;6133939;29;20063;-81
2021/05/05 03:51:59;;;;;;;2.45;1.58;;;16.80;60.20;;;;;;6132597;29;20049;-77
2021/05/05 03:55:01;;;;;;;4.82;1.88;;;16.90;60.30;;;;;;6117007;29;20456;-77
2021/05/05 03:58:02;;;;;;;1.52;1.42;;;16.90;60.10;;;;;;6116670;29;20439;-77
2021/05/05 04:01:04;;;;;;;7.13;1.80;;;16.90;59.90;;;;;;6116961;29;20466;-78
2021/05/05 04:04:05;;;;;;;2.72;1.80;;;16.90;59.70;;;;;;6116643;29;20024;-77
2021/05/05 04:07:09;;;;;;;5.40;2.05;;;17.00;59.60;;;;;;6133045;29;20062;-76
2021/05/05 04:10:11;;;;;;;2.58;1.52;;;17.00;59.70;;;;;;6132044;29;20031;-77
2021/05/05 04:13:12;;;;;;;2.85;1.92;;;17.00;59.80;;;;;;6115556;29;20388;-77
2021/05/05 04:16:13;;;;;;;3.22;1.92;;;16.90;59.80;;;;;;6115912;29;20070;-77
2021/05/05 04:19:14;;;;;;;3.42;1.77;;;16.90;59.80;;;;;;6134956;29;20042;-77
2021/05/05 04:22:15;;;;;;;4.32;2.00;;;16.90;59.60;;;;;;6117843;29;20404;-77
2021/05/05 04:25:17;;;;;;;3.30;1.65;;;17.00;59.40;;;;;;6132596;29;20027;-78
2021/05/05 04:28:19;;;;;;;3.85;2.05;;;17.00;59.30;;;;;;6115709;29;20150;-78
2021/05/05 04:31:20;;;;;;;3.55;1.85;;;17.00;59.30;;;;;;6115694;29;20036;-77
2021/05/05 04:34:22;;;;;;;3.50;2.08;;;17.00;59.30;;;;;;6115077;29;20028;-77
2021/05/05 04:37:23;;;;;;;4.45;1.83;;;17.00;59.30;;;;;;6132005;29;20039;-77
2021/05/05 04:40:24;;;;;;;3.25;2.00;;;17.00;59.30;;;;;;6132174;29;20028;-77
2021/05/05 04:43:25;;;;;;;1.83;1.50;;;17.00;59.40;;;;;;6115345;29;20176;-77
2021/05/05 04:46:26;;;;;;;2.40;1.70;;;16.90;59.50;;;;;;6115573;29;20475;-77
2021/05/05 04:50:08;;;;;;;7.10;2.25;;;16.90;59.90;;;;;;6114629;29;20031;-78
2021/05/05 04:53:09;;;;;;;3.40;1.58;;;16.80;60.00;;;;;;6135532;29;20122;-78
2021/05/05 04:56:10;;;;;;;3.17;1.98;;;16.70;60.00;;;;;;6115258;29;20110;-78
2021/05/05 04:59:11;;;;;;;4.25;2.20;;;16.70;60.20;;;;;;6131605;29;20031;-77
2021/05/05 05:02:12;;;;;;;4.05;2.10;;;16.70;60.20;;;;;;6117686;29;20177;-77
2021/05/05 05:05:14;;;;;;;2.83;1.90;;;16.70;60.20;;;;;;6112017;29;20075;-77
2021/05/05 05:08:15;;;;;;;6.78;1.90;;;16.70;60.20;;;;;;6100955;29;20044;-77
2021/05/05 05:11:17;;;;;;;2.63;1.92;;;16.70;60.20;;;;;;6097260;29;20032;-77
2021/05/05 05:14:18;;;;;;;7.05;1.98;;;16.70;60.10;;;;;;6114375;29;20114;-80
2021/05/05 05:17:19;;;;;;;2.78;2.20;;;16.70;60.20;;;;;;6114228;29;20027;-77
2021/05/05 05:20:21;;;;;;;2.63;1.70;;;16.70;60.20;;;;;;6113233;29;20024;-78
2021/05/05 05:23:22;;;;;;;7.60;2.13;;;16.80;60.10;;;;;;6112047;29;20024;-78
2021/05/05 05:26:23;;;;;;;6.95;2.28;;;16.80;59.90;;;;;;6114849;29;20114;-77
2021/05/05 05:29:24;;;;;;;5.60;2.05;;;16.80;59.70;;;;;;6118043;29;20028;-79
2021/05/05 05:32:25;;;;;;;3.33;1.98;;;16.90;59.70;;;;;;6122380;29;20047;-78
2021/05/05 05:35:26;;;;;;;3.75;2.05;;;16.90;59.60;;;;;;6131494;29;20039;-78
2021/05/05 05:38:29;;;;;;;4.65;1.88;;;16.90;59.70;;;;;;6115063;29;20123;-79
2021/05/05 05:41:31;;;;;;;3.90;2.20;;;16.90;59.70;;;;;;6116143;29;20035;-79
2021/05/05 05:44:32;;;;;;;3.53;1.75;;;16.90;59.60;;;;;;6115262;29;20043;-78
2021/05/05 05:47:33;;;;;;;1.58;1.40;;;16.90;59.40;;;;;;6110821;29;20043;-78
2021/05/05 05:50:34;;;;;;;2.03;1.80;;;16.90;59.00;;;;;;6131721;29;20063;-78
2021/05/05 05:53:38;;;;;;;4.47;2.08;;;16.90;58.90;;;;;;6135444;29;20059;-78
2021/05/05 05:56:39;;;;;;;3.55;2.17;;;17.00;58.80;;;;;;6146454;29;20082;-77
2021/05/05 05:59:42;;;;;;;5.00;1.75;;;17.00;58.90;;;;;;6128902;29;20028;-78
2021/05/05 06:02:46;;;;;;;2.17;1.63;;;17.00;58.80;;;;;;6128072;29;20040;-76
2021/05/05 06:06:08;;;;;;;;;;;;;;;;;;;;;
2021/05/05 06:09:15;;;;;;;2.85;1.40;;;17.10;58.40;;;;;;6138726;29;20051;-78
2021/05/05 06:12:42;;;;;;;3.40;1.73;;;17.10;58.10;;;;;;6120334;29;20059;-78
2021/05/05 06:15:52;;;;;;;3.00;1.70;;;17.20;57.90;;;;;;6128714;29;20028;-79
2021/05/05 06:18:54;;;;;;;2.85;1.40;;;17.20;57.60;;;;;;6126015;29;20042;-76
2021/05/05 06:21:58;;;;;;;5.35;1.65;;;17.20;57.60;;;;;;6122359;29;20054;-79
2021/05/05 06:25:09;;;;;;;3.10;1.40;;;17.10;57.70;;;;;;6121685;29;20075;-78
2021/05/05 06:28:14;;;;;;;2.20;1.73;;;17.10;57.70;;;;;;6103254;29;20051;-78
2021/05/05 06:31:17;;;;;;;3.90;1.60;;;17.00;57.70;;;;;;6115057;29;20043;-78
2021/05/05 06:34:18;;;;;;;2.35;1.80;;;17.00;57.90;;;;;;6113349;29;20554;-77
2021/05/05 06:37:20;;;;;;;2.78;1.60;;;16.90;58.00;;;;;;6128436;29;20123;-78
2021/05/05 06:40:24;;;;;;;2.35;1.35;;;16.90;57.80;;;;;;6097231;29;20051;-78
2021/05/05 06:43:25;;;;;;;3.67;1.50;;;17.00;57.80;;;;;;6128501;29;20466;-79
2021/05/05 06:46:29;;;;;;;3.30;1.88;;;17.00;57.50;;;;;;6130410;29;20047;-78
2021/05/05 06:49:33;;;;;;;4.38;1.73;;;17.10;57.40;;;;;;6114613;29;20035;-77
2021/05/05 06:52:34;;;;;;;1.92;1.20;;;17.10;57.30;;;;;;6115346;29;20405;-77
2021/05/05 06:55:35;;;;;;;4.85;1.42;;;17.10;57.20;;;;;;6130271;29;20035;-77
2021/05/05 06:58:36;;;;;;;4.28;1.98;;;17.10;57.10;;;;;;6114849;29;20046;-78
2021/05/05 07:01:40;;;;;;;4.20;1.90;;;17.00;57.20;;;;;;6099795;29;20051;-78
2021/05/05 07:04:41;;;;;;;2.97;1.63;;;17.00;57.50;;;;;;6131405;29;20103;-78
2021/05/05 07:07:43;;;;;;;3.00;1.55;;;17.00;58.10;;;;;;6115648;29;20036;-77
2021/05/05 07:10:47;;;;;;;3.15;1.30;;;16.90;58.80;;;;;;6113559;29;20422;-78
2021/05/05 07:13:48;;;;;;;5.43;1.67;;;16.70;59.60;;;;;;6130057;29;20343;-78
2021/05/05 07:16:49;;;;;;;3.42;1.73;;;16.50;60.10;;;;;;6112417;29;20035;-78
2021/05/05 07:19:50;;;;;;;3.38;1.67;;;16.40;60.70;;;;;;6116624;29;20043;-77
2021/05/05 07:22:52;;;;;;;2.75;1.70;;;16.40;61.30;;;;;;6133999;29;20530;-78
2021/05/05 07:25:53;;;;;;;2.35;1.73;;;16.30;61.80;;;;;;6117893;29;20047;-78
2021/05/05 07:28:56;;;;;;;4.13;1.90;;;16.20;61.90;;;;;;6134903;29;20411;-78
2021/05/05 07:31:57;;;;;;;2.50;1.70;;;16.20;62.10;;;;;;6117632;29;20039;-78
2021/05/05 07:34:59;;;;;;;4.25;2.47;;;16.20;63.10;;;;;;6101606;29;20042;-77
2021/05/05 07:38:20;;;;;;;5.10;2.05;;;16.10;63.70;;;;;;6117354;29;20035;-77
2021/05/05 07:47:52;;;;;;;3.08;1.23;;;15.90;66.40;;;;;;6133668;29;20027;-78
2021/05/05 07:50:54;;;;;;;1.02;0.57;;;15.80;66.70;;;;;;6117464;29;20047;-77
2021/05/05 07:53:56;;;;;;;5.43;1.20;;;15.60;66.50;;;;;;6118074;29;20039;-78
2021/05/05 07:56:57;;;;;;;2.05;0.52;;;15.40;65.30;;;;;;6111918;29;20099;-78
2021/05/05 07:59:58;;;;;;;2.20;0.30;;;15.20;64.20;;;;;;6118221;29;20042;-79
2021/05/05 08:03:00;;;;;;;0.45;0.25;;;15.00;63.00;;;;;;6116619;29;20103;-77
2021/05/05 08:06:01;;;;;;;1.65;0.45;;;14.70;61.80;;;;;;6117453;29;20032;-77
2021/05/05 08:09:03;;;;;;;0.30;0.20;;;14.50;62.30;;;;;;6117859;29;20031;-77
2021/05/05 08:12:06;;;;;;;0.65;0.45;;;14.30;62.60;;;;;;6117461;29;20028;-78
2021/05/05 08:15:08;;;;;;;0.75;0.40;;;14.20;63.30;;;;;;6133058;29;20043;-78
2021/05/05 08:18:10;;;;;;;0.57;0.30;;;14.20;63.60;;;;;;6132826;29;20031;-77
2021/05/05 08:21:11;;;;;;;2.83;0.73;;;14.10;64.20;;;;;;6116306;29;20031;-79
2021/05/05 08:24:12;;;;;;;1.00;0.65;;;13.90;63.90;;;;;;6116091;29;20118;-78
2021/05/05 08:27:14;;;;;;;2.97;0.80;;;13.80;64.50;;;;;;6116883;29;20059;-78
2021/05/05 08:30:19;;;;;;;1.38;0.40;;;13.70;65.30;;;;;;6131723;29;20047;-78
2021/05/05 08:33:20;;;;;;;0.32;0.32;;;13.80;65.70;;;;;;6100446;29;20381;-77
2021/05/05 08:36:21;;;;;;;0.85;0.40;;;13.80;65.80;;;;;;6132254;29;20028;-78
2021/05/05 08:39:23;;;;;;;3.25;0.70;;;13.80;65.50;;;;;;6099979;29;20077;-78
2021/05/05 08:42:24;;;;;;;4.25;1.20;;;13.90;65.20;;;;;;6116628;29;20139;-78
2021/05/05 08:45:27;;;;;;;0.60;0.38;;;13.90;64.10;;;;;;6099441;29;20036;-78
2021/05/05 08:48:28;;;;;;;0.22;0.22;;;14.10;63.20;;;;;;6132562;29;20035;-78
2021/05/05 08:51:30;;;;;;;2.13;0.28;;;14.20;62.00;;;;;;6130828;29;20028;-78
2021/05/05 08:54:31;;;;;;;0.38;0.38;;;14.30;61.50;;;;;;6130696;29;20119;-77
2021/05/05 08:57:32;;;;;;;1.00;0.47;;;14.50;60.60;;;;;;6098853;29;20039;-78
2021/05/05 09:00:36;;;;;;;0.88;0.60;;;14.60;60.10;;;;;;6099013;29;20088;-78
2021/05/05 09:03:43;;;;;;;0.77;0.22;;;14.80;59.20;;;;;;6115071;29;20052;-78
2021/05/05 09:06:57;;;;;;;0.68;0.40;;;14.90;58.50;;;;;;6115161;29;20051;-78
2021/05/05 09:10:06;;;;;;;0.63;0.40;;;15.00;57.40;;;;;;6123554;29;20063;-78
2021/05/05 09:13:07;;;;;;;1.13;0.38;;;15.00;57.30;;;;;;6121916;29;20027;-78
2021/05/05 09:16:10;;;;;;;0.65;0.50;;;15.10;56.60;;;;;;6114193;29;20032;-78
2021/05/05 09:19:11;;;;;;;1.75;0.60;;;15.10;55.80;;;;;;6114840;29;20036;-78
2021/05/05 09:22:12;;;;;;;0.85;0.32;;;15.00;55.00;;;;;;6114789;29;20087;-78
2021/05/05 09:25:20;;;;;;;1.83;0.57;;;15.00;54.70;;;;;;6130548;29;20132;-77
2021/05/05 09:28:22;;;;;;;2.88;0.60;;;15.00;54.70;;;;;;6131707;29;20098;-77
2021/05/05 09:31:33;;;;;;;2.05;0.60;;;15.00;53.70;;;;;;6132879;29;20040;-77
2021/05/05 09:34:34;;;;;;;0.60;0.38;;;15.00;53.70;;;;;;6127019;29;20047;-78
2021/05/05 09:37:36;;;;;;;2.88;0.60;;;15.10;52.80;;;;;;6115661;29;20046;-78
2021/05/05 09:40:58;;;;;;;3.33;0.70;;;15.20;52.80;;;;;;6132243;29;20028;-80
2021/05/05 09:44:05;;;;;;;0.60;0.30;;;15.40;51.10;;;;;;6130916;29;20067;-79
2021/05/05 09:47:06;;;;;;;2.08;0.77;;;15.60;50.30;;;;;;6115427;29;20035;-77
2021/05/05 09:50:22;;;;;;;1.83;0.50;;;15.90;49.40;;;;;;6114391;29;20534;-78
2021/05/05 09:53:27;;;;;;;3.85;0.60;;;16.10;48.40;;;;;;6097833;29;20051;-79
2021/05/05 09:56:28;;;;;;;1.95;0.77;;;16.30;47.50;;;;;;6114422;29;20031;-78
2021/05/05 09:59:29;;;;;;;2.83;0.60;;;16.30;47.20;;;;;;6113867;29;20035;-79
2021/05/05 10:02:43;;;;;;;6.43;0.98;;;16.50;46.40;;;;;;6097874;29;20047;-78
2021/05/05 10:05:44;;;;;;;1.17;0.47;;;16.40;46.30;;;;;;6113529;29;20118;-77
2021/05/05 10:08:53;;;;;;;0.73;0.50;;;16.50;46.80;;;;;;6132773;29;20090;-79
2021/05/05 10:11:55;;;;;;;7.95;0.60;;;16.60;46.90;;;;;;6114043;29;20052;-78
2021/05/05 10:14:56;;;;;;;5.20;0.90;;;16.70;46.60;;;;;;6130171;29;20167;-78
2021/05/05 10:17:59;;;;;;;3.85;0.90;;;17.00;46.70;;;;;;6130419;29;20473;-78
2021/05/05 10:21:01;;;;;;;11.40;1.15;;;17.30;46.10;;;;;;6134052;29;20030;-78
2021/05/05 10:24:07;;;;;;;10.60;0.73;;;17.70;45.00;;;;;;6114879;29;20035;-79
2021/05/05 10:27:08;;;;;;;3.05;0.77;;;18.00;44.90;;;;;;6114922;29;20454;-78
2021/05/05 10:30:14;;;;;;;3.58;0.82;;;18.20;44.10;;;;;;6114864;29;20391;-78
2021/05/05 10:33:24;;;;;;;1.88;0.90;;;18.20;43.70;;;;;;6129654;29;20080;-79
2021/05/05 10:36:39;;;;;;;2.42;0.68;;;18.20;43.90;;;;;;6129280;29;20067;-79
2021/05/05 10:39:44;;;;;;;8.38;1.08;;;18.30;43.60;;;;;;6114402;29;20100;-78
2021/05/05 10:43:06;;;;;;;0.93;0.43;;;18.40;43.50;;;;;;6114272;29;20428;-77
2021/05/05 10:46:44;;;;;;;2.60;0.63;;;18.60;43.50;;;;;;6098268;29;20035;-78
2021/05/05 10:53:05;;;;;;;2.13;0.55;;;19.10;42.10;;;;;;6059581;29;20484;-78
2021/05/05 10:56:30;;;;;;;1.30;0.40;;;19.10;41.40;;;;;;6064536;29;20076;-78
2021/05/05 10:59:56;;;;;;;1.00;0.60;;;18.90;41.20;;;;;;6047633;29;20096;-77
2021/05/05 11:03:01;;;;;;;2.90;0.70;;;18.70;41.70;;;;;;6050115;29;20165;-79
2021/05/05 11:06:02;;;;;;;3.20;0.60;;;18.60;41.70;;;;;;6021995;29;20238;-78
2021/05/05 11:09:06;;;;;;;1.60;0.70;;;18.50;42.00;;;;;;6041600;29;20041;-78
2021/05/05 11:12:37;;;;;;;6.18;0.85;;;18.80;42.10;;;;;;6031653;29;20033;-76
2021/05/05 11:15:41;;;;;;;3.45;0.52;;;19.20;41.50;;;;;;6047494;29;20029;-77
2021/05/05 11:18:45;;;;;;;3.67;0.60;;;19.50;40.70;;;;;;6049857;29;20061;-77
2021/05/05 11:21:46;;;;;;;1.20;0.60;;;19.70;40.40;;;;;;6045723;29;20386;-78
2021/05/05 11:24:49;;;;;;;2.83;0.70;;;20.10;39.80;;;;;;6100916;29;20056;-79
2021/05/05 11:27:52;;;;;;;2.22;0.68;;;20.10;39.50;;;;;;6112655;29;20090;-79
2021/05/05 11:30:54;;;;;;;1.67;0.60;;;20.10;39.70;;;;;;6115454;29;20127;-78
2021/05/05 11:33:59;;;;;;;5.10;0.77;;;20.10;39.70;;;;;;6093609;29;20051;-79
2021/05/05 11:37:00;;;;;;;2.88;0.57;;;20.30;39.80;;;;;;6092015;29;20047;-78
2021/05/05 11:40:04;;;;;;;1.63;0.70;;;20.50;39.40;;;;;;6092760;29;20040;-78
2021/05/05 11:43:19;;;;;;;4.32;0.73;;;20.70;38.80;;;;;;6105473;29;20039;-78
2021/05/05 11:46:22;;;;;;;1.95;0.57;;;21.20;38.90;;;;;;6090223;29;20069;-79
2021/05/05 11:49:32;;;;;;;0.65;0.50;;;22.10;37.80;;;;;;6088449;29;20576;-78
2021/05/05 11:52:35;;;;;;;1.98;0.40;;;22.70;36.50;;;;;;6095151;29;20416;-78
2021/05/05 11:55:36;;;;;;;1.23;0.60;;;22.70;35.80;;;;;;6103465;29;20043;-79
2021/05/05 11:58:37;;;;;;;2.90;1.45;;;22.60;35.20;;;;;;6114291;29;20462;-78
2021/05/05 12:01:39;;;;;;;3.28;0.70;;;22.30;35.10;;;;;;6112839;29;20051;-78
2021/05/05 12:04:42;;;;;;;2.85;0.63;;;22.40;35.00;;;;;;6117747;29;20495;-79
2021/05/05 12:07:43;;;;;;;2.15;0.80;;;22.40;34.90;;;;;;6118073;29;20488;-78
2021/05/05 12:11:03;;;;;;;2.88;0.98;;;22.60;34.60;;;;;;6117817;29;20043;-77
2021/05/05 12:14:04;;;;;;;4.28;0.50;;;22.80;34.50;;;;;;6115891;29;20122;-77
2021/05/05 12:20:27;;;;;;;4.57;0.77;;;22.70;34.60;;;;;;6116434;29;20336;-78
2021/05/05 12:23:43;;;;;;;2.72;0.43;;;23.10;33.70;;;;;;6133408;29;20034;-76
2021/05/05 12:26:44;;;;;;;2.90;0.77;;;23.80;32.80;;;;;;6133146;29;20027;-78
2021/05/05 12:29:57;;;;;;;4.60;1.38;;;24.70;31.40;;;;;;6116579;29;20474;-77
2021/05/05 12:32:59;;;;;;;5.25;0.60;;;25.40;30.00;;;;;;6106557;29;20043;-78
2021/05/05 12:36:07;;;;;;;2.47;0.82;;;25.70;29.30;;;;;;6115207;29;20415;-78
2021/05/05 12:39:16;;;;;;;6.18;0.90;;;25.60;29.20;;;;;;6115745;29;20031;-78
2021/05/05 12:42:17;;;;;;;2.45;0.70;;;25.40;29.20;;;;;;6116089;29;20043;-79
2021/05/05 12:45:21;;;;;;;3.58;0.63;;;25.20;29.20;;;;;;6116035;29;20031;-80
2021/05/05 12:48:29;;;;;;;2.13;0.85;;;24.90;29.30;;;;;;6132571;29;20443;-78
2021/05/05 12:51:37;;;;;;;3.47;0.77;;;24.40;29.90;;;;;;6132045;29;20067;-78
2021/05/05 12:54:47;;;;;;;3.03;0.65;;;24.60;30.30;;;;;;6131740;29;20507;-78
2021/05/05 12:58:11;;;;;;;2.13;1.00;;;25.10;29.30;;;;;;6133169;29;20031;-78
2021/05/05 13:01:15;;;;;;;2.35;0.70;;;25.20;28.90;;;;;;6117661;29;20451;-79
2021/05/05 13:04:18;;;;;;;2.13;0.82;;;25.90;28.30;;;;;;6116843;29;20076;-77
2021/05/05 13:07:30;;;;;;;2.25;0.63;;;26.50;27.80;;;;;;6116961;29;20403;-78
2021/05/05 13:10:42;;;;;;;1.50;0.50;;;26.80;27.10;;;;;;6116880;29;20055;-78
2021/05/05 13:13:55;;;;;;;5.97;0.75;;;26.50;27.30;;;;;;6116966;29;20061;-78
2021/05/05 13:30:53;;;;;;;3.38;0.70;;;23.40;31.30;;;;;;6127574;29;20084;-78
2021/05/05 13:34:00;;;;;;;4.13;0.50;;;23.40;31.70;;;;;;6102174;29;20363;-78
2021/05/05 13:37:09;;;;;;;2.38;0.60;;;23.40;31.70;;;;;;6114641;29;20360;-78
2021/05/05 13:40:10;;;;;;;1.40;0.60;;;23.60;31.90;;;;;;6131672;29;20356;-78
2021/05/05 13:49:59;;;;;;;2.05;0.70;;;23.60;32.00;;;;;;6130959;29;20470;-78
2021/05/05 13:53:00;;;;;;;4.38;0.88;;;23.60;32.20;;;;;;6113936;29;20098;-77
2021/05/05 13:56:01;;;;;;;1.38;0.68;;;23.70;31.40;;;;;;6114037;29;20478;-77
2021/05/05 13:59:04;;;;;;;3.80;0.80;;;24.50;29.80;;;;;;6113993;29;20086;-80
2021/05/05 14:02:07;;;;;;;5.75;0.60;;;24.70;29.20;;;;;;6114810;29;20094;-79
2021/05/05 14:05:12;;;;;;;3.70;0.73;;;25.30;28.70;;;;;;6128850;29;20028;-78
2021/05/05 14:08:13;;;;;;;6.75;1.00;;;25.80;28.00;;;;;;6113493;29;20023;-77
2021/05/05 14:11:15;;;;;;;3.08;0.70;;;26.00;27.90;;;;;;6130849;29;20118;-79
2021/05/05 14:14:17;;;;;;;1.83;0.68;;;26.70;28.00;;;;;;6114992;29;20067;-78
2021/05/05 14:17:18;;;;;;;1.60;0.60;;;27.50;27.20;;;;;;6129654;29;20035;-78
2021/05/05 14:20:20;;;;;;;6.07;1.42;;;28.20;26.60;;;;;;6115246;29;20120;-78
2021/05/05 14:23:21;;;;;;;2.42;0.57;;;28.70;26.00;;;;;;6130711;29;20054;-78
2021/05/05 14:26:22;;;;;;;3.88;0.85;;;28.40;26.10;;;;;;6115480;29;20039;-77
2021/05/05 14:29:24;;;;;;;0.50;0.35;;;27.90;26.50;;;;;;6112708;29;20047;-78
2021/05/05 14:32:35;;;;;;;1.38;0.93;;;27.70;26.30;;;;;;6130338;29;20036;-80
2021/05/05 14:35:37;;;;;;;1.15;0.77;;;28.00;25.20;;;;;;6113414;29;20098;-78
2021/05/05 14:38:42;;;;;;;2.63;1.00;;;28.50;25.70;;;;;;6131814;29;20106;-78
2021/05/05 14:41:46;;;;;;;1.85;0.90;;;28.60;25.10;;;;;;6113595;29;20036;-79
2021/05/05 14:45:05;;;;;;;3.10;0.77;;;28.10;25.60;;;;;;6130128;29;20032;-78
2021/05/05 14:48:13;;;;;;;1.70;0.50;;;27.50;26.20;;;;;;6115073;29;20032;-79
2021/05/05 14:51:15;;;;;;;1.58;0.85;;;27.10;26.80;;;;;;6113145;29;20039;-80
2021/05/05 14:54:16;;;;;;;3.80;0.40;;;26.50;26.80;;;;;;6130115;29;20115;-78
2021/05/05 14:57:20;;;;;;;1.90;0.57;;;26.00;27.50;;;;;;6130071;29;20051;-79
2021/05/05 15:00:22;;;;;;;5.80;0.57;;;25.50;27.50;;;;;;6097719;29;20023;-79
2021/05/05 15:03:23;;;;;;;8.32;1.00;;;25.00;27.90;;;;;;6096587;29;20047;-79
2021/05/05 15:06:37;;;;;;;0.60;0.60;;;24.60;28.70;;;;;;6112589;29;20032;-78
2021/05/05 15:12:57;;;;;;;2.63;0.63;;;23.80;29.60;;;;;;6114555;29;20118;-78
2021/05/05 15:29:08;;;;;;;1.42;0.77;;;24.40;29.10;;;;;;6129089;29;20038;-78
2021/05/05 15:38:42;;;;;;;2.13;0.60;;;30.10;23.40;;;;;;6113570;29;20359;-78
2021/05/05 15:41:46;;;;;;;0.85;0.55;;;31.20;22.30;;;;;;6133064;29;20055;-79
2021/05/05 15:45:03;;;;;;;0.80;0.60;;;31.70;21.80;;;;;;6116958;29;20043;-79
2021/05/05 15:48:06;;;;;;;4.03;0.60;;;32.30;21.30;;;;;;6117305;29;20036;-78
2021/05/05 15:51:07;;;;;;;0.98;0.45;;;33.00;20.80;;;;;;6132475;29;20028;-78
2021/05/05 15:54:11;;;;;;;2.30;0.40;;;33.50;19.50;;;;;;6132668;29;20127;-79
2021/05/05 15:57:13;;;;;;;2.88;0.70;;;33.90;19.20;;;;;;6132275;29;20027;-79
2021/05/05 16:00:51;;;;;;;1.25;0.50;;;34.10;19.10;;;;;;6116266;29;20032;-79
2021/05/05 16:16:46;;;;;;;4.32;0.73;;;33.80;18.20;;;;;;6133282;29;20055;-78
2021/05/05 16:19:58;;;;;;;2.95;0.60;;;33.60;17.70;;;;;;6120003;29;20102;-79
2021/05/05 16:23:11;;;;;;;3.83;0.40;;;33.40;17.70;;;;;;6117780;29;20032;-78
2021/05/05 16:29:34;;;;;;;1.92;0.70;;;33.10;18.10;;;;;;6118956;29;20047;-78
2021/05/05 16:55:57;;;;;;;3.85;1.08;;;24.80;26.50;;;;;;6138685;29;20058;-78
2021/05/05 17:09:06;;;;;;;1.67;0.55;;;23.10;29.10;;;;;;6129980;29;20035;-77
2021/05/05 17:12:07;;;;;;;4.57;1.48;;;22.70;29.60;;;;;;6131054;29;20082;-77
2021/05/05 17:21:35;;;;;;;5.63;1.50;;;21.90;31.20;;;;;;6134297;29;20028;-78
2021/05/05 17:24:48;;;;;;;2.22;0.80;;;21.70;31.80;;;;;;6134832;29;20032;-78
2021/05/05 17:28:16;;;;;;;5.47;0.75;;;21.50;32.20;;;;;;6143157;29;20046;-78
2021/05/05 18:14:36;;;;;;;6.63;1.10;;;20.00;34.20;;;;;;6131888;29;20031;-78
2021/05/05 18:20:43;;;;;;;2.47;1.10;;;19.80;35.30;;;;;;6114949;29;20042;-78
2021/05/05 18:23:48;;;;;;;3.35;1.60;;;19.80;36.10;;;;;;6101808;29;20035;-78
2021/05/05 18:29:53;;;;;;;2.85;1.40;;;19.60;37.40;;;;;;6117630;29;20038;-77
2021/05/05 18:32:54;;;;;;;2.40;1.17;;;19.50;37.70;;;;;;6101016;29;20114;-78
2021/05/05 18:35:55;;;;;;;3.42;0.95;;;19.40;38.50;;;;;;6132752;29;20111;-78
2021/05/05 18:38:58;;;;;;;2.67;1.00;;;19.30;38.70;;;;;;6117156;29;20126;-80
2021/05/05 19:14:57;;;;;;;;;;;;;;;;;;;;;
2021/05/05 21:07:01;;;;;;;4.95;1.77;;;16.10;46.60;;;;;;6150194;29;20028;-78
2021/05/05 21:27:29;;;;;;;5.43;1.80;;;15.90;47.30;;;;;;6061338;29;20041;-77